Time;durP1;ratioP1;P1;durP2;ratioP2;P2;SDS_P1;SDS_P2;PMS_P1;PMS_P2;Temp;Humidity;BMP_temperature;BMP_pressure;BME280_temperature;BME280_humidity;BME280_pressure;Samples;Min_cycle;Max_cycle;Signal;HPM_P1;HPM_P2
2022/01/04 00:00:26;;;;;;;19.52;11.20;;;8.80;99.90;;;;;;5202980;23;19939;-96
2022/01/04 00:05:40;;;;;;;21.30;10.70;;;8.80;99.90;;;;;;5058307;23;20047;-96
2022/01/04 00:21:54;;;;;;;19.00;9.88;;;8.80;99.90;;;;;;5914645;23;20073;-96
2022/01/04 00:29:53;;;;;;;20.88;10.18;;;8.80;99.90;;;;;;5746356;23;20646;-96
2022/01/04 00:32:24;;;;;;;24.30;10.40;;;8.80;99.90;;;;;;5501958;23;20027;-95
2022/01/04 00:37:34;;;;;;;22.20;10.77;;;8.80;99.90;;;;;;5138466;23;20055;-96
2022/01/04 00:40:00;;;;;;;21.00;10.27;;;8.90;99.90;;;;;;5205350;23;21088;-93
2022/01/04 00:45:22;;;;;;;21.73;10.57;;;8.90;99.90;;;;;;749830;23;20227;-94
2022/01/04 00:50:27;;;;;;;20.70;10.27;;;8.90;99.90;;;;;;5153907;23;20488;31
2022/01/04 01:01:57;;;;;;;22.52;11.93;;;8.90;99.90;;;;;;2094763;23;20246;-94
2022/01/04 01:04:25;;;;;;;23.15;11.98;;;8.90;99.90;;;;;;5219173;23;20051;-96
2022/01/04 01:06:51;;;;;;;21.00;11.35;;;8.90;99.90;;;;;;5225674;23;20064;-96
2022/01/04 01:09:18;;;;;;;25.13;11.82;;;8.90;99.90;;;;;;5334108;23;1067770;-96
2022/01/04 01:11:44;;;;;;;22.80;11.63;;;8.90;99.90;;;;;;5139578;23;20049;-96
2022/01/04 01:16:53;;;;;;;24.00;10.82;;;9.00;99.90;;;;;;5139936;23;20032;-96
2022/01/04 01:21:49;;;;;;;24.73;11.05;;;9.00;99.90;;;;;;5109316;23;20067;-96
2022/01/04 01:24:14;;;;;;;25.15;10.98;;;8.90;99.90;;;;;;5354087;23;20118;-96
2022/01/04 01:29:55;;;;;;;23.70;12.00;;;8.90;99.90;;;;;;5413623;23;20128;31
2022/01/04 01:35:35;;;;;;;20.10;11.90;;;8.90;99.90;;;;;;4954263;23;20051;-96
2022/01/04 01:38:03;;;;;;;21.00;12.05;;;8.90;99.90;;;;;;4969990;23;20088;-96
2022/01/04 01:40:29;;;;;;;25.92;11.90;;;8.90;99.90;;;;;;5311948;23;20939;-96
2022/01/04 01:42:56;;;;;;;22.48;12.50;;;8.90;99.90;;;;;;5048753;23;21046;-96
2022/01/04 01:45:23;;;;;;;22.77;11.73;;;8.90;99.90;;;;;;5257581;23;20082;-96
2022/01/04 01:47:53;;;;;;;23.73;12.63;;;8.90;99.90;;;;;;5087391;23;20052;-96
2022/01/04 01:50:26;;;;;;;24.33;11.93;;;8.90;99.90;;;;;;5119719;23;20026;-96
2022/01/04 01:56:06;;;;;;;22.70;11.60;;;8.90;99.90;;;;;;5423086;23;20076;31
2022/01/04 02:04:23;;;;;;;22.42;11.63;;;8.80;99.90;;;;;;5168783;23;20027;-96
2022/01/04 02:09:32;;;;;;;24.35;11.88;;;8.80;99.90;;;;;;5211169;23;20040;-96
2022/01/04 02:11:59;;;;;;;24.25;12.07;;;8.70;99.90;;;;;;4922525;29;20107;-96
2022/01/04 02:14:25;;;;;;;21.50;12.45;;;8.70;99.90;;;;;;5150294;23;20040;-96
2022/01/04 02:19:36;;;;;;;25.23;13.48;;;8.60;99.90;;;;;;5580205;23;20842;-92
2022/01/04 02:22:04;;;;;;;22.92;13.07;;;8.60;99.90;;;;;;5615587;23;20122;-96
2022/01/04 02:27:19;;;;;;;24.25;11.23;;;8.60;99.90;;;;;;5393167;23;21049;-96
2022/01/04 02:29:46;;;;;;;26.38;13.85;;;8.50;99.90;;;;;;4954080;23;20074;-96
2022/01/04 02:32:13;;;;;;;27.10;14.02;;;8.50;99.90;;;;;;4882318;29;20049;-96
2022/01/04 02:34:39;;;;;;;24.48;13.18;;;8.50;99.90;;;;;;4864216;29;20133;-96
2022/01/04 02:39:53;;;;;;;28.13;14.27;;;8.40;99.90;;;;;;5020608;23;20074;-96
2022/01/04 02:42:19;;;;;;;22.52;12.10;;;8.50;99.90;;;;;;4902339;29;20052;-96
2022/01/04 02:44:45;;;;;;;22.45;11.05;;;8.40;99.90;;;;;;4917103;29;20512;-96
2022/01/04 02:47:12;;;;;;;25.10;14.43;;;8.50;99.90;;;;;;4926169;23;20084;-96
2022/01/04 02:49:38;;;;;;;24.40;14.60;;;8.50;99.90;;;;;;4949183;23;20078;-96
2022/01/04 02:52:04;;;;;;;24.92;13.95;;;8.50;99.90;;;;;;4903257;29;20040;-96
2022/01/04 03:25:29;;;;;;;28.60;16.20;;;8.30;99.90;;;;;;4916240;29;20035;-96
2022/01/04 03:27:54;;;;;;;26.48;14.95;;;8.40;99.90;;;;;;4885198;29;20143;-96
2022/01/04 03:30:21;;;;;;;29.75;16.15;;;8.30;99.90;;;;;;4915497;29;20048;-96
2022/01/04 03:32:47;;;;;;;26.83;15.68;;;8.40;99.90;;;;;;4900709;29;20066;-96
2022/01/04 03:35:13;;;;;;;29.73;16.52;;;8.40;99.90;;;;;;4898111;29;20040;-96
2022/01/04 03:37:40;;;;;;;25.83;15.35;;;8.40;99.90;;;;;;4897445;29;20080;-96
2022/01/04 03:40:09;;;;;;;28.35;15.75;;;8.50;99.90;;;;;;4892730;29;20394;-96
2022/01/04 03:42:35;;;;;;;25.75;16.15;;;8.50;99.90;;;;;;4916323;29;20059;-96
2022/01/04 03:45:01;;;;;;;28.15;16.55;;;8.50;99.90;;;;;;4910927;29;20044;-96
2022/01/04 03:47:27;;;;;;;24.98;15.68;;;8.50;99.90;;;;;;4898893;29;20067;-96
2022/01/04 03:49:52;;;;;;;26.88;16.42;;;8.60;99.90;;;;;;4887116;29;20070;-96
2022/01/04 03:52:25;;;;;;;27.23;16.40;;;8.60;99.90;;;;;;4877037;29;20044;-96
2022/01/04 03:55:01;;;;;;;26.02;15.52;;;8.60;99.90;;;;;;4884225;29;20044;-96
2022/01/04 03:57:27;;;;;;;24.92;15.50;;;8.60;99.90;;;;;;4895460;29;20044;-96
2022/01/04 03:59:53;;;;;;;25.40;16.27;;;8.60;99.90;;;;;;4889985;29;20044;-96
2022/01/04 04:02:19;;;;;;;25.50;15.77;;;8.60;99.90;;;;;;4885718;29;20101;-96
2022/01/04 04:04:45;;;;;;;26.52;16.17;;;8.60;99.90;;;;;;4886696;29;20087;-96
2022/01/04 04:07:34;;;;;;;24.42;13.18;;;8.60;99.90;;;;;;4895561;29;20051;-96
2022/01/04 04:10:00;;;;;;;25.60;16.45;;;8.40;99.90;;;;;;4884921;29;20337;-96
2022/01/04 04:15:21;;;;;;;26.75;13.95;;;8.70;99.90;;;;;;4939202;29;20059;-96
2022/01/04 04:17:47;;;;;;;23.27;16.00;;;8.60;99.90;;;;;;5030594;23;20040;-96
2022/01/04 04:20:13;;;;;;;27.48;16.15;;;8.60;99.90;;;;;;4907941;29;20128;-96
2022/01/04 04:22:40;;;;;;;30.67;17.00;;;8.70;99.90;;;;;;4902445;29;20044;-96
2022/01/04 04:25:06;;;;;;;28.35;16.02;;;8.70;99.90;;;;;;4902832;29;20589;-96
2022/01/04 04:27:31;;;;;;;25.83;16.08;;;8.60;99.90;;;;;;4896167;29;20040;-96
2022/01/04 04:30:04;;;;;;;28.98;16.75;;;8.60;99.90;;;;;;4961838;23;20060;-96
2022/01/04 04:32:58;;;;;;;26.65;17.35;;;8.70;99.90;;;;;;5057443;23;20067;-96
2022/01/04 04:35:24;;;;;;;26.35;16.50;;;8.70;99.90;;;;;;4905800;29;20059;-96
2022/01/04 04:37:58;;;;;;;24.92;17.02;;;8.70;99.90;;;;;;4897322;29;20402;-96
2022/01/04 04:40:24;;;;;;;29.35;17.88;;;8.70;99.90;;;;;;4887138;29;20028;-96
2022/01/04 04:42:50;;;;;;;24.92;17.77;;;8.60;99.90;;;;;;5166054;24;20053;-96
2022/01/04 04:45:19;;;;;;;26.88;17.35;;;8.60;99.90;;;;;;4933017;29;20056;-95
2022/01/04 04:47:45;;;;;;;28.38;17.77;;;8.60;99.90;;;;;;4921991;29;20047;-96
2022/01/04 04:50:11;;;;;;;28.58;18.38;;;8.60;99.90;;;;;;4924957;29;20178;-96
2022/01/04 04:52:37;;;;;;;28.13;16.58;;;8.60;99.90;;;;;;5126950;24;20063;-94
2022/01/04 05:07:18;;;;;;;29.20;18.10;;;8.60;99.90;;;;;;1060013;23;20314;-96
2022/01/04 05:09:44;;;;;;;29.58;18.23;;;8.60;99.90;;;;;;4963297;23;20048;-96
2022/01/04 05:12:10;;;;;;;27.63;17.65;;;8.60;99.90;;;;;;4915394;29;20112;-96
2022/01/04 05:14:53;;;;;;;27.60;14.45;;;8.60;99.90;;;;;;5112693;23;21082;31
2022/01/04 05:20:09;;;;;;;27.20;17.02;;;8.50;99.90;;;;;;4958520;29;20043;-96
2022/01/04 05:22:41;;;;;;;29.40;17.23;;;8.60;99.90;;;;;;5019637;23;20087;-96
2022/01/04 05:25:08;;;;;;;25.48;14.35;;;8.60;99.90;;;;;;4898246;29;20076;-96
2022/01/04 05:27:34;;;;;;;23.30;15.77;;;8.50;99.90;;;;;;4931518;29;20067;-96
2022/01/04 05:29:59;;;;;;;24.88;16.92;;;8.50;99.90;;;;;;4968198;23;20056;-96
2022/01/04 05:32:25;;;;;;;22.45;15.93;;;8.50;99.90;;;;;;4920230;29;20055;-96
2022/01/04 06:03:25;;;;;;;26.58;17.50;;;8.60;99.90;;;;;;4972423;29;20039;-96
2022/01/04 06:05:53;;;;;;;26.05;17.52;;;8.50;99.90;;;;;;5008079;23;20128;-96
2022/01/04 06:53:48;;;;;;;32.08;19.27;;;8.50;99.90;;;;;;1599259;23;20370;-94
2022/01/04 06:56:14;;;;;;;29.73;18.55;;;8.50;99.90;;;;;;4886854;29;20053;-96
2022/01/04 07:03:51;;;;;;;35.28;25.15;;;8.50;99.90;;;;;;5054944;23;20086;-96
2022/01/04 07:06:16;;;;;;;35.80;23.02;;;8.50;99.90;;;;;;4871746;29;20108;-96
2022/01/04 07:08:48;;;;;;;32.90;22.75;;;8.50;99.90;;;;;;4885892;29;20048;-96
2022/01/04 07:11:22;;;;;;;35.45;25.40;;;8.50;99.90;;;;;;5265223;23;20188;-96
2022/01/04 07:13:48;;;;;;;35.65;24.70;;;8.50;99.90;;;;;;4970955;23;20039;-96
2022/01/04 07:21:31;;;;;;;40.47;25.48;;;8.50;99.90;;;;;;5186292;23;20047;-96
2022/01/04 07:26:50;;;;;;;40.63;25.73;;;8.50;99.90;;;;;;5021450;23;20060;-96
2022/01/04 07:29:16;;;;;;;41.45;21.90;;;8.30;99.90;;;;;;4897093;29;20107;-96
2022/01/04 07:31:41;;;;;;;45.95;27.65;;;8.40;99.90;;;;;;4898196;29;20138;-96
2022/01/04 07:34:07;;;;;;;42.45;27.27;;;8.30;99.90;;;;;;5010812;23;20035;-96
2022/01/04 07:36:33;;;;;;;40.70;26.55;;;8.40;99.90;;;;;;4906207;29;20040;-96
2022/01/04 07:39:56;;;;;;;39.92;26.27;;;8.30;99.90;;;;;;5111832;23;20032;-96
2022/01/04 07:42:32;;;;;;;42.83;26.17;;;8.40;99.90;;;;;;5038478;23;20316;31
2022/01/04 07:44:58;;;;;;;40.80;26.45;;;8.40;99.90;;;;;;5257820;23;20104;-96
2022/01/04 07:47:24;;;;;;;39.75;26.55;;;8.40;99.90;;;;;;4907987;29;20044;-96
2022/01/04 07:59:05;;;;;;;37.95;25.65;;;8.40;99.90;;;;;;5483261;23;20023;31
2022/01/04 08:01:32;;;;;;;36.00;24.77;;;8.40;99.90;;;;;;4840314;29;20234;-96
2022/01/04 08:04:00;;;;;;;38.72;24.95;;;8.40;99.90;;;;;;4820160;29;20225;-96
2022/01/04 08:06:26;;;;;;;38.55;24.30;;;8.40;99.90;;;;;;4827822;29;20026;-94
2022/01/04 08:08:52;;;;;;;31.55;22.80;;;8.30;99.90;;;;;;4964707;23;20024;-96
2022/01/04 08:11:19;;;;;;;34.85;22.42;;;8.40;99.90;;;;;;4877645;29;20581;-92
2022/01/04 08:13:45;;;;;;;28.80;17.83;;;8.30;99.90;;;;;;4883058;29;20079;-95
2022/01/04 08:16:13;;;;;;;34.03;22.27;;;8.30;99.90;;;;;;4858295;29;20037;-96
2022/01/04 08:18:39;;;;;;;33.10;22.35;;;8.30;99.90;;;;;;4855404;29;20407;-95
2022/01/04 08:21:07;;;;;;;35.20;23.52;;;8.30;99.90;;;;;;4865330;29;20052;-96
2022/01/04 08:23:33;;;;;;;35.80;23.88;;;8.30;99.90;;;;;;4866684;29;20104;-95
2022/01/04 08:43:10;;;;;;;37.95;26.55;;;8.30;99.90;;;;;;2159218;23;21641;-96
2022/01/04 09:03:47;;;;;;;36.50;24.25;;;8.30;99.90;;;;;;4877511;29;20057;-96
2022/01/04 09:06:14;;;;;;;35.78;23.80;;;8.40;99.90;;;;;;4866690;29;20052;-95
2022/01/04 09:08:39;;;;;;;33.30;19.30;;;8.40;99.90;;;;;;4862219;29;20045;-94
2022/01/04 09:11:11;;;;;;;33.95;19.50;;;8.40;99.90;;;;;;4844012;29;20054;-95
2022/01/04 09:13:41;;;;;;;37.58;24.98;;;8.40;99.90;;;;;;4844717;29;20491;-93
2022/01/04 09:18:43;;;;;;;27.90;15.13;;;8.40;99.90;;;;;;4860449;29;20464;-95
2022/01/04 09:21:12;;;;;;;23.13;13.10;;;8.30;99.90;;;;;;4861452;29;20132;-94
2022/01/04 09:23:38;;;;;;;19.45;10.65;;;8.30;99.90;;;;;;4845498;29;20075;-96
2022/01/04 09:26:04;;;;;;;16.52;9.43;;;8.30;99.90;;;;;;4847564;29;20045;-96
2022/01/04 09:28:30;;;;;;;14.43;7.97;;;8.20;99.90;;;;;;4864492;29;20056;-96
2022/01/04 09:30:57;;;;;;;15.88;9.20;;;8.20;99.90;;;;;;4853006;29;20037;-94
2022/01/04 09:33:23;;;;;;;21.35;11.50;;;8.20;99.90;;;;;;4870730;29;20064;-95
2022/01/04 09:35:49;;;;;;;18.27;10.75;;;8.10;99.90;;;;;;4854823;29;20041;-96
2022/01/04 09:38:15;;;;;;;22.70;15.02;;;8.10;99.90;;;;;;4864153;29;20040;-95
2022/01/04 09:40:51;;;;;;;27.63;17.02;;;8.10;99.90;;;;;;4847065;29;20056;-95
2022/01/04 09:43:20;;;;;;;26.70;17.38;;;8.20;99.90;;;;;;4850322;29;20041;-94
2022/01/04 09:45:46;;;;;;;25.83;16.52;;;8.20;99.90;;;;;;4846173;29;20093;-94
2022/01/04 09:48:11;;;;;;;28.15;18.20;;;8.20;99.90;;;;;;4861785;29;20072;-95
2022/01/04 09:50:39;;;;;;;25.55;13.75;;;8.30;99.90;;;;;;4845970;29;20226;-95
2022/01/04 09:53:09;;;;;;;25.23;14.43;;;8.30;99.90;;;;;;4847071;29;20127;-95
2022/01/04 09:55:42;;;;;;;27.25;16.98;;;8.20;99.90;;;;;;4851702;29;20247;-95
2022/01/04 09:58:08;;;;;;;27.63;16.40;;;8.20;99.90;;;;;;4847540;29;20045;-96
2022/01/04 10:00:34;;;;;;;23.80;15.05;;;8.30;99.90;;;;;;4858051;29;20077;-96
2022/01/04 10:03:18;;;;;;;25.90;14.38;;;8.30;99.90;;;;;;4850298;29;20060;-94
2022/01/04 10:05:45;;;;;;;24.90;14.68;;;8.30;99.90;;;;;;4863791;29;20071;-94
2022/01/04 10:08:13;;;;;;;23.83;13.77;;;8.30;99.90;;;;;;4847446;29;20079;-95
2022/01/04 10:10:42;;;;;;;19.52;13.27;;;8.30;99.90;;;;;;4855497;29;20048;-95
2022/01/04 10:13:14;;;;;;;20.08;12.00;;;8.30;99.90;;;;;;4870844;29;20064;-93
2022/01/04 10:15:43;;;;;;;18.33;11.63;;;8.20;99.90;;;;;;4854689;29;20081;-93
2022/01/04 10:18:18;;;;;;;18.40;11.73;;;8.30;99.90;;;;;;4866261;29;20029;-92
2022/01/04 10:20:53;;;;;;;19.88;11.23;;;8.30;99.90;;;;;;4871403;29;20039;-93
2022/01/04 10:23:23;;;;;;;18.13;10.98;;;8.30;99.90;;;;;;4853971;29;20462;-93
2022/01/04 10:26:00;;;;;;;21.15;12.02;;;8.30;99.90;;;;;;4864711;29;20055;-92
2022/01/04 10:28:31;;;;;;;15.15;6.20;;;8.40;99.90;;;;;;4846878;29;20184;-92
2022/01/04 10:31:01;;;;;;;;;;;8.20;99.90;;;;;;4860707;29;20044;-93
2022/01/04 10:33:28;;;;;;;8.98;4.10;;;8.10;99.90;;;;;;4860481;29;19924;-94
2022/01/04 10:35:55;;;;;;;9.20;3.65;;;8.00;99.90;;;;;;4859981;29;20045;-92
2022/01/04 10:38:24;;;;;;;10.40;3.40;;;7.90;99.90;;;;;;4860397;29;20076;-93
2022/01/04 10:41:31;;;;;;;8.65;3.47;;;7.80;99.90;;;;;;4859660;29;20049;-93
2022/01/04 10:44:03;;;;;;;16.40;14.18;;;7.80;99.90;;;;;;4842757;29;20312;-92
2022/01/04 10:46:36;;;;;;;8.18;2.78;;;7.70;99.90;;;;;;4860520;29;20055;-93
2022/01/04 10:49:20;;;;;;;8.15;2.08;;;7.70;99.90;;;;;;4861078;29;20056;-93
2022/01/04 10:52:03;;;;;;;10.60;2.35;;;7.60;99.90;;;;;;4863120;29;20060;-93
2022/01/04 10:54:29;;;;;;;7.75;1.95;;;7.50;99.90;;;;;;4844757;29;20045;-92
2022/01/04 10:57:09;;;;;;;8.15;1.67;;;7.50;99.90;;;;;;4862883;29;20499;-95
2022/01/04 10:59:36;;;;;;;6.18;3.22;;;7.40;99.90;;;;;;4846050;29;20294;-92
2022/01/04 11:02:02;;;;;;;9.43;3.20;;;7.30;99.90;;;;;;4877589;29;20041;-94
2022/01/04 11:04:28;;;;;;;7.30;2.30;;;7.40;99.90;;;;;;4862152;29;20053;-92
2022/01/04 11:07:00;;;;;;;5.30;3.08;;;7.40;99.90;;;;;;4847015;29;20064;-91
2022/01/04 11:09:25;;;;;;;6.50;2.15;;;7.40;99.90;;;;;;4861100;29;20080;-91
2022/01/04 11:11:51;;;;;;;8.45;3.60;;;7.40;99.90;;;;;;4845843;29;20069;-91
2022/01/04 11:14:17;;;;;;;4.00;1.30;;;7.30;99.90;;;;;;4857155;29;20488;-92
2022/01/04 11:16:43;;;;;;;3.42;1.23;;;7.30;99.90;;;;;;4845388;29;20498;-92
2022/01/04 11:19:09;;;;;;;7.03;1.77;;;7.30;99.90;;;;;;4860017;29;20041;-91
2022/01/04 11:21:37;;;;;;;4.15;1.20;;;7.30;99.90;;;;;;4844217;29;20181;-94
2022/01/04 11:24:06;;;;;;;8.18;1.67;;;7.30;99.90;;;;;;4866282;29;20049;-93
2022/01/04 11:26:45;;;;;;;6.93;1.30;;;7.30;99.90;;;;;;4862540;29;20144;-93
2022/01/04 11:29:11;;;;;;;8.23;3.55;;;7.40;99.90;;;;;;4845356;29;20453;-93
2022/01/04 11:31:55;;;;;;;6.50;2.20;;;7.30;99.90;;;;;;4860161;29;20480;-91
2022/01/04 11:34:49;;;;;;;6.78;2.65;;;7.30;99.90;;;;;;4860341;29;20060;-92
2022/01/04 11:37:19;;;;;;;3.55;1.08;;;7.30;99.90;;;;;;4846178;29;20074;-93
2022/01/04 11:39:45;;;;;;;3.38;0.82;;;7.20;99.90;;;;;;4861474;29;20398;-91
2022/01/04 11:42:52;;;;;;;2.20;0.73;;;7.00;99.90;;;;;;4861038;29;20092;-92
2022/01/04 11:45:37;;;;;;;2.85;0.77;;;6.90;99.90;;;;;;4844324;29;20554;-93
2022/01/04 11:48:03;;;;;;;4.78;0.88;;;6.80;99.90;;;;;;4845271;29;20506;-92
2022/01/04 11:50:35;;;;;;;5.03;0.77;;;6.70;99.90;;;;;;4844460;29;20044;-93
2022/01/04 11:53:06;;;;;;;4.05;0.93;;;6.70;99.90;;;;;;4845837;29;20052;-93
2022/01/04 11:56:06;;;;;;;4.72;0.98;;;6.60;99.90;;;;;;4861157;29;20129;-93
2022/01/04 11:58:45;;;;;;;4.72;0.80;;;6.60;99.90;;;;;;4814290;29;20140;-92
2022/01/04 12:01:14;;;;;;;2.95;0.75;;;6.60;99.90;;;;;;4860340;29;20045;-93
2022/01/04 12:03:47;;;;;;;2.13;0.75;;;6.50;99.90;;;;;;4860400;29;20521;-93
2022/01/04 12:06:17;;;;;;;3.70;0.82;;;6.60;99.90;;;;;;4861304;29;20049;-92
2022/01/04 12:08:51;;;;;;;3.83;0.90;;;6.50;99.90;;;;;;4845972;29;20048;-92
2022/01/04 12:11:52;;;;;;;4.57;1.30;;;6.50;99.90;;;;;;4845628;29;20446;-92
2022/01/04 12:14:24;;;;;;;4.88;0.93;;;6.60;99.90;;;;;;4781917;29;20057;-93
2022/01/04 12:17:07;;;;;;;4.45;0.80;;;6.50;99.90;;;;;;4789210;29;20050;-94
2022/01/04 12:19:50;;;;;;;4.82;0.82;;;6.50;99.90;;;;;;4788548;29;20117;-92
2022/01/04 12:22:32;;;;;;;4.32;0.70;;;6.50;99.90;;;;;;4820337;29;20463;-91
2022/01/04 12:25:06;;;;;;;6.18;1.25;;;6.50;99.90;;;;;;4789248;29;20062;-92
2022/01/04 12:27:32;;;;;;;5.15;0.80;;;6.40;99.90;;;;;;4804468;29;20103;-94
2022/01/04 12:30:24;;;;;;;7.88;0.82;;;6.30;99.90;;;;;;4786471;29;20055;-92
2022/01/04 12:32:49;;;;;;;;;;;6.10;99.90;;;;;;4789815;29;20050;-93
2022/01/04 12:35:16;;;;;;;5.70;1.00;;;6.00;99.90;;;;;;4790247;29;19931;-91
2022/01/04 12:37:42;;;;;;;6.82;2.15;;;5.90;99.90;;;;;;4803179;29;20095;-92
2022/01/04 12:40:09;;;;;;;4.68;0.80;;;5.90;99.90;;;;;;4786351;29;20519;-91
2022/01/04 12:42:39;;;;;;;5.15;1.00;;;6.00;99.90;;;;;;4788739;29;20046;-92
2022/01/04 12:45:05;;;;;;;3.42;0.98;;;5.90;99.90;;;;;;4784433;29;20149;-93
2022/01/04 12:47:31;;;;;;;6.93;0.70;;;6.00;99.90;;;;;;4799257;29;20049;-93
2022/01/04 12:50:01;;;;;;;5.43;0.95;;;6.00;99.90;;;;;;4854960;29;20059;-93
2022/01/04 12:52:27;;;;;;;4.55;1.00;;;6.00;99.90;;;;;;4870797;29;20136;-92
2022/01/04 12:54:53;;;;;;;3.33;0.90;;;6.00;99.90;;;;;;4838528;29;20554;-92
2022/01/04 12:57:28;;;;;;;4.85;0.98;;;6.10;99.90;;;;;;4842184;29;20045;-92
2022/01/04 12:59:58;;;;;;;3.15;0.98;;;6.10;99.90;;;;;;4857857;29;20440;-93
2022/01/04 13:02:28;;;;;;;5.45;1.02;;;6.10;99.90;;;;;;4854382;29;20064;-96
2022/01/04 13:04:59;;;;;;;4.25;1.10;;;6.20;99.90;;;;;;4971446;24;20097;-96
2022/01/04 13:07:32;;;;;;;4.38;1.45;;;6.30;99.90;;;;;;5018242;23;20877;-96
2022/01/04 13:10:03;;;;;;;4.82;1.00;;;6.50;99.90;;;;;;4904016;23;20100;-93
2022/01/04 13:12:35;;;;;;;7.65;2.10;;;6.50;99.90;;;;;;4873314;29;20109;-95
2022/01/04 13:15:01;;;;;;;;;;;6.50;99.90;;;;;;4859376;29;20041;-96
2022/01/04 13:17:28;;;;;;;4.22;1.25;;;6.50;99.90;;;;;;4863494;29;19971;-94
2022/01/04 13:19:55;;;;;;;8.68;3.85;;;6.40;99.90;;;;;;4853959;29;20140;-93
2022/01/04 13:22:23;;;;;;;6.18;1.40;;;6.30;99.90;;;;;;4844256;29;20403;-95
2022/01/04 13:25:04;;;;;;;6.00;1.55;;;6.40;99.90;;;;;;4847434;29;20045;-95
2022/01/04 13:27:38;;;;;;;7.47;2.10;;;6.40;99.90;;;;;;4860784;29;20037;-93
2022/01/04 13:30:11;;;;;;;6.13;1.95;;;6.40;99.90;;;;;;4848792;29;20053;-96
2022/01/04 13:32:49;;;;;;;11.88;2.40;;;6.40;99.90;;;;;;4847242;29;20056;-92
2022/01/04 13:35:17;;;;;;;8.18;2.00;;;6.40;99.90;;;;;;4846620;29;20053;-92
2022/01/04 13:37:47;;;;;;;6.35;1.30;;;6.40;99.90;;;;;;4861835;29;20055;-91
2022/01/04 13:40:13;;;;;;;3.88;1.00;;;6.40;99.90;;;;;;4847062;29;20049;-91
2022/01/04 13:42:44;;;;;;;6.60;1.33;;;6.40;99.90;;;;;;4861393;29;20049;-92
2022/01/04 13:45:13;;;;;;;6.63;1.52;;;6.40;99.90;;;;;;4862916;29;20033;-93
2022/01/04 13:47:43;;;;;;;9.10;1.70;;;6.40;99.90;;;;;;4846626;29;20049;-92
2022/01/04 13:50:09;;;;;;;5.80;1.33;;;6.40;99.90;;;;;;4863913;29;20037;-95
2022/01/04 13:52:35;;;;;;;8.85;1.55;;;6.40;99.90;;;;;;4861628;29;20059;-90
2022/01/04 13:55:02;;;;;;;7.65;1.15;;;6.40;99.90;;;;;;4864480;29;20053;-93
2022/01/04 13:57:41;;;;;;;8.20;1.13;;;6.40;99.90;;;;;;4854570;29;20075;-96
2022/01/04 14:00:32;;;;;;;7.18;1.25;;;6.40;99.90;;;;;;5346491;23;20063;-92
2022/01/04 14:02:58;;;;;;;5.40;1.40;;;6.30;99.90;;;;;;4880217;29;20134;-94
2022/01/04 14:05:24;;;;;;;7.65;1.73;;;6.30;99.90;;;;;;4870326;29;20509;-95
2022/01/04 14:07:58;;;;;;;6.43;1.30;;;6.20;99.90;;;;;;4892713;29;20132;-95
2022/01/04 14:10:48;;;;;;;8.88;2.80;;;6.20;99.90;;;;;;4881269;29;20127;-96
2022/01/04 14:13:37;;;;;;;9.50;2.47;;;6.20;99.90;;;;;;4885223;29;20040;-95
2022/01/04 14:16:14;;;;;;;6.30;1.80;;;6.10;99.90;;;;;;4874328;29;20356;-95
2022/01/04 14:47:03;;;;;;;7.53;2.15;;;5.90;99.90;;;;;;6283600;22;1281310;-92
2022/01/04 14:49:30;;;;;;;7.85;1.55;;;5.80;99.90;;;;;;6229978;22;20072;-95
2022/01/04 14:52:04;;;;;;;7.40;1.30;;;5.80;99.90;;;;;;6230379;22;20016;-93
2022/01/04 14:54:31;;;;;;;8.07;1.45;;;5.70;99.90;;;;;;6230478;22;20022;-94
2022/01/04 14:56:56;;;;;;;8.90;1.42;;;5.70;99.90;;;;;;6230469;22;20106;-93
2022/01/04 14:59:22;;;;;;;7.53;2.13;;;5.60;99.90;;;;;;6256142;22;20448;-96
2022/01/04 15:01:48;;;;;;;6.35;1.65;;;5.50;99.90;;;;;;6229254;22;20509;-95
2022/01/04 15:04:13;;;;;;;6.70;1.70;;;5.50;99.90;;;;;;6231197;22;20061;-95
2022/01/04 15:06:42;;;;;;;8.18;1.60;;;5.50;99.90;;;;;;6229884;22;20087;-96
2022/01/04 15:09:13;;;;;;;6.68;1.50;;;5.40;99.90;;;;;;6231656;22;20011;-95
2022/01/04 15:11:40;;;;;;;6.78;1.30;;;5.30;99.90;;;;;;6229531;22;20015;-93
2022/01/04 15:14:06;;;;;;;8.32;1.40;;;5.30;99.90;;;;;;6230779;22;20148;-93
2022/01/04 15:16:32;;;;;;;5.85;1.38;;;5.20;99.90;;;;;;6230151;22;20224;-94
2022/01/04 15:18:59;;;;;;;6.88;1.45;;;5.10;99.90;;;;;;6230019;22;20016;-93
2022/01/04 15:21:26;;;;;;;6.82;1.23;;;5.10;99.90;;;;;;6230381;22;20069;-95
2022/01/04 15:24:07;;;;;;;9.00;1.50;;;5.10;99.90;;;;;;6229653;22;20020;-94
2022/01/04 15:26:34;;;;;;;8.18;2.38;;;5.10;99.90;;;;;;6228471;22;20321;-94
2022/01/04 15:29:00;;;;;;;7.78;2.58;;;5.00;99.90;;;;;;6230695;22;20046;-93
2022/01/04 15:31:27;;;;;;;9.20;2.15;;;5.00;99.90;;;;;;6230379;22;20018;-95
2022/01/04 15:33:52;;;;;;;7.97;2.50;;;5.00;99.90;;;;;;6254826;22;20019;-94
2022/01/04 15:36:18;;;;;;;10.60;1.98;;;5.00;99.90;;;;;;6230768;22;20023;-95
2022/01/04 15:38:44;;;;;;;7.30;1.88;;;5.00;99.90;;;;;;6229749;22;20015;-94
2022/01/04 15:41:10;;;;;;;7.45;2.13;;;5.00;99.90;;;;;;6229458;22;20019;-92
2022/01/04 15:43:37;;;;;;;10.13;1.40;;;5.00;99.90;;;;;;6228861;22;20514;-92
2022/01/04 15:46:04;;;;;;;6.07;1.20;;;5.00;99.90;;;;;;6226554;22;20043;-93
2022/01/04 15:48:30;;;;;;;6.20;1.35;;;5.00;99.90;;;;;;6221857;22;20019;-91
2022/01/04 15:50:56;;;;;;;12.07;1.48;;;4.90;99.90;;;;;;6226474;22;20019;-93
2022/01/04 15:53:34;;;;;;;6.13;0.95;;;4.80;99.90;;;;;;6225069;22;20016;-94
2022/01/04 15:56:00;;;;;;;4.22;0.90;;;4.80;99.90;;;;;;6247998;22;20022;-93
2022/01/04 15:58:25;;;;;;;7.82;1.30;;;4.80;99.90;;;;;;6242034;22;20328;-93
2022/01/04 16:00:51;;;;;;;5.18;1.00;;;4.80;99.90;;;;;;6236505;22;20006;-94
2022/01/04 16:03:17;;;;;;;5.68;1.30;;;4.80;99.90;;;;;;6251202;22;20003;-93
2022/01/04 16:05:45;;;;;;;6.88;1.45;;;4.80;99.90;;;;;;6261243;22;20023;-95
2022/01/04 16:08:23;;;;;;;7.20;1.40;;;4.80;99.90;;;;;;6230860;22;20012;-94
2022/01/04 16:10:49;;;;;;;6.55;1.30;;;4.70;99.90;;;;;;6222905;22;20011;-95
2022/01/04 16:13:16;;;;;;;6.05;1.10;;;4.70;99.90;;;;;;6223381;22;20107;-93
2022/01/04 16:16:10;;;;;;;7.40;1.15;;;4.70;99.90;;;;;;6222365;22;20015;-96
2022/01/04 16:21:33;;;;;;;5.05;1.13;;;4.60;99.90;;;;;;6252524;22;20024;-95
2022/01/04 16:24:11;;;;;;;5.88;1.33;;;4.50;99.90;;;;;;6225053;22;20090;-94
2022/01/04 16:26:42;;;;;;;8.02;1.90;;;4.50;99.90;;;;;;6222032;22;20016;-93
2022/01/04 16:29:18;;;;;;;5.60;1.83;;;4.50;99.90;;;;;;6222981;22;20038;-94
2022/01/04 16:31:45;;;;;;;9.38;1.75;;;4.40;99.90;;;;;;6248021;22;20433;-96
2022/01/04 16:34:11;;;;;;;7.63;1.50;;;4.40;99.90;;;;;;6251941;22;20013;-94
2022/01/04 16:36:41;;;;;;;5.35;1.30;;;4.40;99.90;;;;;;6251661;22;20016;-96
2022/01/04 16:39:12;;;;;;;4.78;1.55;;;4.40;99.90;;;;;;6269438;22;19996;-96
2022/01/04 16:41:38;;;;;;;;;;;4.40;99.90;;;;;;6259317;22;20020;-95
2022/01/04 16:44:05;;;;;;;9.60;2.10;;;4.40;99.90;;;;;;6226575;22;19958;-94
2022/01/04 16:46:38;;;;;;;8.95;3.08;;;4.40;99.90;;;;;;6226704;22;20016;-95
2022/01/04 16:49:05;;;;;;;12.27;3.05;;;4.40;99.90;;;;;;6229339;22;20023;-94
2022/01/04 16:51:32;;;;;;;8.20;2.33;;;4.50;99.90;;;;;;6253634;22;20035;-94
2022/01/04 16:53:59;;;;;;;10.00;1.95;;;4.50;99.90;;;;;;6225853;22;20396;-93
2022/01/04 16:56:25;;;;;;;8.65;1.95;;;4.50;99.90;;;;;;6228317;22;20058;-96
2022/01/04 16:58:50;;;;;;;10.50;2.03;;;4.50;99.90;;;;;;6254349;22;20015;-96
2022/01/04 17:01:17;;;;;;;7.80;1.50;;;4.60;99.90;;;;;;6250823;22;20466;-96
2022/01/04 17:03:43;;;;;;;6.40;1.52;;;4.60;99.90;;;;;;6223582;22;20057;-95
2022/01/04 17:06:09;;;;;;;7.03;1.35;;;4.60;99.90;;;;;;6225958;22;20031;-94
2022/01/04 17:08:37;;;;;;;6.72;1.35;;;4.60;99.90;;;;;;6225541;22;20008;-95
2022/01/04 17:11:12;;;;;;;6.18;1.45;;;4.60;99.90;;;;;;6224068;22;20015;-94
2022/01/04 17:16:23;;;;;;;5.88;1.67;;;4.60;99.90;;;;;;6251153;22;20024;-96
2022/01/04 17:18:51;;;;;;;5.97;1.85;;;4.60;99.90;;;;;;6253591;22;20011;-96
2022/01/04 17:21:20;;;;;;;7.82;1.50;;;4.70;99.90;;;;;;6228181;22;20012;-96
2022/01/04 17:23:46;;;;;;;7.80;1.50;;;4.70;99.90;;;;;;6222074;22;20020;-96
2022/01/04 17:26:14;;;;;;;5.88;1.25;;;4.60;99.90;;;;;;6224180;22;20332;-96
2022/01/04 17:28:40;;;;;;;5.95;1.65;;;4.60;99.90;;;;;;6222983;22;20019;-96
2022/01/04 17:31:06;;;;;;;6.75;1.35;;;4.60;99.90;;;;;;6224345;22;20404;-96
2022/01/04 17:33:31;;;;;;;7.35;1.55;;;4.60;99.90;;;;;;6248897;22;20022;-96
2022/01/04 17:35:58;;;;;;;8.15;2.15;;;4.60;99.90;;;;;;6227971;22;20016;-96
2022/01/04 17:38:24;;;;;;;9.27;1.83;;;4.60;99.90;;;;;;6242361;22;20063;-96
2022/01/04 17:40:50;;;;;;;9.68;2.25;;;4.60;99.90;;;;;;6218737;22;20053;-92
2022/01/04 17:43:16;;;;;;;8.98;2.05;;;4.60;99.90;;;;;;6199777;22;20015;-94
2022/01/04 17:45:42;;;;;;;6.18;1.73;;;4.60;99.90;;;;;;6218581;22;20054;-95
2022/01/04 17:48:08;;;;;;;7.85;1.90;;;4.60;99.90;;;;;;6223630;22;20382;-96